createdAt,value
2019-02-21T00:01:01.883Z,98425.00
2019-02-21T00:03:32.797Z,98432.00
2019-02-21T00:06:02.156Z,98421.00
2019-02-21T00:08:32.027Z,98428.00
2019-02-21T00:11:02.939Z,98422.00
2019-02-21T00:13:32.298Z,98423.00
2019-02-21T00:16:01.690Z,98437.00
2019-02-21T00:18:31.045Z,98442.00
2019-02-21T00:21:00.439Z,98448.00
2019-02-21T00:23:29.815Z,98441.00
2019-02-21T00:25:59.194Z,98448.00
2019-02-21T00:28:28.572Z,98444.00
2019-02-21T00:30:58.299Z,98442.00
2019-02-21T00:33:28.812Z,98444.00
2019-02-21T00:35:59.154Z,98443.00
2019-02-21T00:38:28.550Z,98450.00
2019-02-21T00:40:57.920Z,98441.00
2019-02-21T00:43:28.847Z,98435.00
2019-02-21T00:45:58.224Z,98448.00
2019-02-21T00:48:28.232Z,98444.00
2019-02-21T00:50:57.599Z,98447.00
2019-02-21T00:53:27.022Z,98434.00
2019-02-21T00:55:56.405Z,98448.00
2019-02-21T00:58:25.763Z,98444.00
2019-02-21T01:00:56.733Z,98457.00
2019-02-21T01:03:26.104Z,98450.00
2019-02-21T01:05:55.732Z,98459.00
2019-02-21T01:08:25.129Z,98445.00
2019-02-21T01:10:54.505Z,98443.00
2019-02-21T01:13:23.871Z,98441.00
2019-02-21T01:15:53.928Z,98451.00
2019-02-21T01:18:23.492Z,98445.00
2019-02-21T01:20:52.884Z,98454.00
2019-02-21T01:23:22.285Z,98454.00
2019-02-21T01:25:51.691Z,98464.00
2019-02-21T01:28:21.872Z,98454.00
2019-02-21T01:30:57.054Z,98459.00
2019-02-21T01:33:22.365Z,98464.00
2019-02-21T01:35:51.753Z,98461.00
2019-02-21T01:38:23.247Z,98453.00
2019-02-21T01:40:52.687Z,98459.00
2019-02-21T01:43:22.055Z,98462.00
2019-02-21T01:45:51.448Z,98459.00
2019-02-21T01:48:20.828Z,98455.00
2019-02-21T01:50:50.211Z,98453.00
2019-02-21T02:14:23.749Z,98462.00
2019-02-21T02:16:53.139Z,98462.00
2019-02-21T02:19:22.521Z,98459.00
2019-02-21T02:21:51.921Z,98446.00
2019-02-21T02:24:21.318Z,98443.00
2019-02-21T02:26:50.686Z,98451.00
2019-02-21T02:29:20.077Z,98442.00
2019-02-21T02:31:49.459Z,98439.00
2019-02-21T02:34:19.404Z,98445.00
2019-02-21T02:36:49.828Z,98447.00
2019-02-21T02:39:19.221Z,98444.00
2019-02-21T02:41:48.592Z,98452.00
2019-02-21T02:44:18.011Z,98450.00
2019-02-21T02:46:47.384Z,98447.00
2019-02-21T02:49:16.805Z,98451.00
2019-02-21T02:51:46.148Z,98459.00
2019-02-21T02:54:15.553Z,98455.00
2019-02-21T02:56:44.933Z,98459.00
2019-02-21T02:59:15.200Z,98452.00
2019-02-21T03:01:46.000Z,98460.00
2019-02-21T03:04:17.698Z,98453.00
2019-02-21T03:06:47.118Z,98455.00
2019-02-21T03:09:16.500Z,98456.00
2019-02-21T03:11:47.000Z,98468.00
2019-02-21T03:14:16.422Z,98474.00
2019-02-21T03:16:46.062Z,98470.00
2019-02-21T03:19:15.465Z,98462.00
2019-02-21T03:21:44.863Z,98450.00
2019-02-21T03:24:14.224Z,98453.00
2019-02-21T03:26:43.624Z,98452.00
2019-02-21T03:29:13.035Z,98465.00
2019-02-21T03:31:54.584Z,98456.00
2019-02-21T03:34:14.091Z,98456.00
2019-02-21T03:36:44.007Z,98463.00
2019-02-21T03:39:15.013Z,98477.00
2019-02-21T03:41:45.374Z,98469.00
2019-02-21T03:44:14.782Z,98447.00
2019-02-21T03:46:48.440Z,98459.00
2019-02-21T03:49:17.838Z,98471.00
2019-02-21T03:51:47.274Z,98462.00
2019-02-21T03:54:16.647Z,98470.00
2019-02-21T03:56:46.019Z,98454.00
2019-02-21T03:59:16.983Z,98457.00
2019-02-21T04:01:46.363Z,98441.00
2019-02-21T04:04:15.730Z,98453.00
2019-02-21T04:06:45.188Z,98447.00
2019-02-21T04:09:14.566Z,98442.00
2019-02-21T04:11:44.024Z,98448.00
2019-02-21T04:14:13.891Z,98454.00
2019-02-21T04:16:43.266Z,98461.00
2019-02-21T04:19:14.928Z,98470.00
2019-02-21T04:21:45.942Z,98468.00
2019-02-21T04:24:15.339Z,98469.00
2019-02-21T04:26:45.718Z,98458.00
2019-02-21T04:29:15.772Z,98460.00
2019-02-21T04:31:45.141Z,98447.00
2019-02-21T04:34:14.510Z,98452.00
2019-02-21T04:36:43.910Z,98456.00
2019-02-21T04:39:13.277Z,98457.00
2019-02-21T04:41:42.660Z,98454.00
2019-02-21T04:44:12.066Z,98452.00
2019-02-21T04:46:47.359Z,98456.00
2019-02-21T04:49:17.854Z,98452.00
2019-02-21T04:51:47.684Z,98450.00
2019-02-21T04:54:17.291Z,98444.00
2019-02-21T04:56:46.676Z,98451.00
2019-02-21T04:59:16.061Z,98451.00
2019-02-21T05:01:45.455Z,98458.00
2019-02-21T05:04:14.814Z,98449.00
2019-02-21T05:06:44.206Z,98433.00
2019-02-21T05:09:14.241Z,98445.00
2019-02-21T05:11:45.144Z,98461.00
2019-02-21T05:14:16.217Z,98451.00
2019-02-21T05:16:46.146Z,98449.00
2019-02-21T05:19:16.549Z,98444.00
2019-02-21T05:21:46.621Z,98443.00
2019-02-21T05:24:15.982Z,98462.00
2019-02-21T05:26:46.992Z,98455.00
2019-02-21T05:29:16.373Z,98454.00
2019-02-21T05:32:03.668Z,98459.00
2019-02-21T05:34:39.338Z,98447.00
2019-02-21T05:37:28.413Z,98460.00
2019-02-21T05:40:16.007Z,98450.00
2019-02-21T05:42:46.978Z,98448.00
2019-02-21T05:45:23.773Z,98444.00
2019-02-21T05:48:11.989Z,98439.00
2019-02-21T05:51:02.797Z,98442.00
2019-02-21T05:53:38.485Z,98453.00
2019-02-21T05:56:27.728Z,98451.00
2019-02-21T05:59:01.678Z,98434.00
2019-02-21T06:01:49.322Z,98433.00
2019-02-21T06:04:20.367Z,98436.00
2019-02-21T06:07:09.830Z,98443.00
2019-02-21T06:09:44.183Z,98441.00
2019-02-21T06:12:32.793Z,98449.00
2019-02-21T06:15:09.904Z,98448.00
2019-02-21T06:17:43.638Z,98461.00
2019-02-21T06:20:17.861Z,98462.00
2019-02-21T06:22:51.780Z,98468.00
2019-02-21T06:25:24.049Z,98478.00
2019-02-21T06:28:01.850Z,98467.00
2019-02-21T06:30:35.841Z,98481.00
2019-02-21T06:33:05.636Z,98473.00
2019-02-21T06:35:35.056Z,98465.00
2019-02-21T06:38:05.710Z,98469.00
2019-02-21T06:40:36.726Z,98466.00
2019-02-21T06:43:06.091Z,98471.00
2019-02-21T06:45:36.089Z,98481.00
2019-02-21T06:48:05.524Z,98470.00
2019-02-21T06:50:36.516Z,98471.00
2019-02-21T06:53:06.935Z,98463.00
2019-02-21T06:55:36.307Z,98483.00
2019-02-21T06:58:05.735Z,98469.00
2019-02-21T07:00:35.156Z,98479.00
2019-02-21T07:03:15.115Z,98486.00
2019-02-21T07:05:36.942Z,98492.00
2019-02-21T07:08:08.761Z,98491.00
2019-02-21T07:10:37.715Z,98494.00
2019-02-21T07:13:07.065Z,98495.00
2019-02-21T07:15:36.807Z,98493.00
2019-02-21T07:18:06.170Z,98483.00
2019-02-21T07:20:35.541Z,98508.00
2019-02-21T07:23:04.930Z,98511.00
2019-02-21T07:25:43.456Z,98497.00
2019-02-21T07:28:15.970Z,98489.00
2019-02-21T07:30:45.297Z,98492.00
2019-02-21T07:33:14.674Z,98477.00
2019-02-21T07:35:44.056Z,98479.00
2019-02-21T07:38:17.082Z,98492.00
2019-02-21T07:40:45.721Z,98497.00
2019-02-21T07:43:15.767Z,98505.00
2019-02-21T07:45:45.144Z,98503.00
2019-02-21T07:48:14.496Z,98517.00
2019-02-21T07:50:43.897Z,98515.00
2019-02-21T07:53:13.272Z,98536.00
2019-02-21T07:55:42.627Z,98526.00
2019-02-21T07:58:12.016Z,98524.00
2019-02-21T08:00:41.398Z,98536.00
2019-02-21T08:03:11.424Z,98536.00
2019-02-21T08:05:41.787Z,98547.00
2019-02-21T08:08:11.920Z,98534.00
2019-02-21T08:10:41.357Z,98531.00
2019-02-21T08:13:10.749Z,98538.00
2019-02-21T08:15:40.118Z,98552.00
2019-02-21T08:18:09.494Z,98553.00
2019-02-21T08:20:41.024Z,98559.00
2019-02-21T08:23:11.051Z,98552.00
2019-02-21T08:25:40.540Z,98553.00
2019-02-21T08:28:10.108Z,98563.00
2019-02-21T08:30:40.594Z,98567.00
2019-02-21T08:33:11.621Z,98577.00
2019-02-21T08:35:41.030Z,98570.00
2019-02-21T08:38:12.126Z,98577.00
2019-02-21T08:40:41.672Z,98554.00
2019-02-21T08:43:13.321Z,98582.00
2019-02-21T08:45:42.734Z,98575.00
2019-02-21T08:48:13.533Z,98577.00
2019-02-21T08:50:42.960Z,98585.00
2019-02-21T08:53:13.089Z,98572.00
2019-02-21T08:55:42.571Z,98580.00
2019-02-21T08:58:11.961Z,98578.00
2019-02-21T09:00:42.373Z,98567.00
2019-02-21T09:03:12.315Z,98570.00
2019-02-21T09:05:42.364Z,98559.00
2019-02-21T09:08:11.738Z,98566.00
2019-02-21T09:10:41.786Z,98570.00
2019-02-21T09:13:12.917Z,98586.00
2019-02-21T09:15:42.290Z,98568.00
2019-02-21T09:18:11.648Z,98564.00
2019-02-21T09:20:44.124Z,98570.00
2019-02-21T09:23:15.942Z,98585.00
2019-02-21T09:25:44.758Z,98576.00
2019-02-21T09:28:15.831Z,98569.00
2019-02-21T09:30:45.448Z,98578.00
2019-02-21T09:33:21.326Z,98592.00
2019-02-21T09:35:51.181Z,98585.00
2019-02-21T09:38:20.607Z,98582.00
2019-02-21T09:40:50.825Z,98583.00
2019-02-21T09:43:25.328Z,98585.00
2019-02-21T09:45:54.702Z,98576.00
2019-02-21T09:48:24.061Z,98575.00
2019-02-21T09:50:53.492Z,98598.00
2019-02-21T09:53:22.911Z,98582.00
2019-02-21T09:55:53.895Z,98590.00
2019-02-21T09:58:24.985Z,98595.00
2019-02-21T10:00:54.457Z,98582.00
2019-02-21T10:03:27.638Z,98586.00
2019-02-21T10:05:57.051Z,98582.00
2019-02-21T10:08:26.414Z,98586.00
2019-02-21T10:10:55.843Z,98583.00
2019-02-21T10:13:25.228Z,98590.00
2019-02-21T10:15:55.160Z,98611.00
2019-02-21T10:18:24.535Z,98592.00
2019-02-21T10:20:53.936Z,98602.00
2019-02-21T10:23:24.350Z,98607.00
2019-02-21T10:25:53.870Z,98612.00
2019-02-21T10:28:23.846Z,98598.00
2019-02-21T10:30:53.222Z,98605.00
2019-02-21T10:33:25.179Z,98616.00
2019-02-21T10:35:54.733Z,98615.00
2019-02-21T10:38:24.790Z,98617.00
2019-02-21T10:40:54.159Z,98607.00
2019-02-21T10:43:23.535Z,98621.00
2019-02-21T10:45:52.923Z,98616.00
2019-02-21T10:48:22.293Z,98613.00
2019-02-21T10:50:52.366Z,98605.00
2019-02-21T10:53:21.754Z,98597.00
2019-02-21T10:55:51.139Z,98588.00
2019-02-21T10:58:20.535Z,98586.00
2019-02-21T11:00:49.917Z,98588.00
2019-02-21T11:03:19.306Z,98594.00
2019-02-21T11:05:48.683Z,98592.00
2019-02-21T11:08:18.081Z,98575.00
2019-02-21T11:10:47.472Z,98580.00
2019-02-21T11:13:16.976Z,98582.00
2019-02-21T11:15:46.337Z,98577.00
2019-02-21T11:18:15.718Z,98561.00
2019-02-21T11:20:45.124Z,98571.00
2019-02-21T11:23:14.491Z,98585.00
2019-02-21T11:25:43.862Z,98571.00
2019-02-21T11:28:13.266Z,98560.00
2019-02-21T11:30:42.668Z,98558.00
2019-02-21T11:33:12.085Z,98551.00
2019-02-21T11:35:41.912Z,98552.00
2019-02-21T11:38:14.776Z,98534.00
2019-02-21T11:40:44.142Z,98546.00
2019-02-21T11:43:13.556Z,98538.00
2019-02-21T11:45:53.210Z,98537.00
2019-02-21T11:48:14.120Z,98547.00
2019-02-21T11:50:43.626Z,98536.00
2019-02-21T11:53:13.008Z,98552.00
2019-02-21T11:55:42.384Z,98545.00
2019-02-21T11:58:11.770Z,98546.00
2019-02-21T12:00:41.373Z,98543.00
2019-02-21T12:03:10.735Z,98556.00
2019-02-21T12:05:40.155Z,98540.00
2019-02-21T12:08:09.526Z,98556.00
2019-02-21T12:10:38.916Z,98554.00
2019-02-21T12:13:08.738Z,98571.00
2019-02-21T12:15:38.110Z,98555.00
2019-02-21T12:18:07.466Z,98559.00
2019-02-21T12:20:37.012Z,98562.00
2019-02-21T12:23:06.403Z,98559.00
2019-02-21T12:25:35.791Z,98564.00
2019-02-21T12:28:05.184Z,98563.00
2019-02-21T12:30:34.565Z,98553.00
2019-02-21T12:33:03.968Z,98565.00
2019-02-21T12:35:33.818Z,98542.00
2019-02-21T12:38:03.195Z,98542.00
2019-02-21T12:40:33.617Z,98561.00
2019-02-21T12:43:02.996Z,98556.00
2019-02-21T12:45:32.371Z,98545.00
2019-02-21T12:48:01.749Z,98542.00
2019-02-21T12:50:31.171Z,98548.00
2019-02-21T12:53:00.554Z,98525.00
2019-02-21T12:55:31.811Z,98542.00
2019-02-21T12:58:01.112Z,98531.00
2019-02-21T13:00:30.539Z,98530.00
2019-02-21T13:02:59.949Z,98519.00
2019-02-21T13:05:40.107Z,98520.00
2019-02-21T13:08:00.460Z,98546.00
2019-02-21T13:10:29.830Z,98518.00
2019-02-21T13:12:59.222Z,98527.00
2019-02-21T13:15:28.676Z,98522.00
2019-02-21T13:17:58.037Z,98514.00
2019-02-21T13:20:27.823Z,98506.00
2019-02-21T13:22:57.232Z,98518.00
2019-02-21T13:25:26.588Z,98517.00
2019-02-21T13:27:55.981Z,98520.00
2019-02-21T13:30:25.353Z,98515.00
2019-02-21T13:32:54.729Z,98502.00
2019-02-21T13:35:52.075Z,98499.00
2019-02-21T13:38:14.992Z,98516.00
2019-02-21T13:40:44.390Z,98527.00
2019-02-21T13:43:14.469Z,98523.00
2019-02-21T13:45:43.828Z,98540.00
2019-02-21T13:48:13.194Z,98542.00
2019-02-21T13:50:42.598Z,98521.00
2019-02-21T13:53:11.962Z,98523.00
2019-02-21T13:55:41.340Z,98534.00
2019-02-21T13:58:11.196Z,98535.00
2019-02-21T14:00:40.571Z,98539.00
2019-02-21T14:03:09.966Z,98534.00
2019-02-21T14:05:39.372Z,98537.00
2019-02-21T14:08:08.743Z,98520.00
2019-02-21T14:10:38.103Z,98526.00
2019-02-21T14:13:07.535Z,98526.00
2019-02-21T14:15:36.920Z,98530.00
2019-02-21T14:18:06.293Z,98535.00
2019-02-21T14:20:44.994Z,98541.00
2019-02-21T14:23:07.480Z,98527.00
2019-02-21T14:25:40.658Z,98530.00
2019-02-21T14:28:07.985Z,98529.00
2019-02-21T14:30:37.360Z,98539.00
2019-02-21T14:33:06.721Z,98537.00
2019-02-21T14:35:36.119Z,98549.00
2019-02-21T14:38:05.490Z,98540.00
2019-02-21T14:40:34.856Z,98547.00
2019-02-21T14:43:04.328Z,98555.00
2019-02-21T14:45:35.070Z,98554.00
2019-02-21T14:48:04.448Z,98547.00
2019-02-21T14:50:35.886Z,98549.00
2019-02-21T14:53:04.942Z,98557.00
2019-02-21T14:55:34.331Z,98566.00
2019-02-21T14:58:03.775Z,98564.00
2019-02-21T15:00:33.208Z,98574.00
2019-02-21T15:03:02.572Z,98566.00
2019-02-21T15:05:32.033Z,98584.00
2019-02-21T15:08:01.414Z,98567.00
2019-02-21T15:10:30.849Z,98569.00
2019-02-21T15:13:00.258Z,98566.00
2019-02-21T15:15:29.670Z,98565.00
2019-02-21T15:18:06.972Z,98565.00
2019-02-21T15:20:36.720Z,98562.00
2019-02-21T15:23:01.240Z,98572.00
2019-02-21T15:25:30.604Z,98567.00
2019-02-21T15:28:00.385Z,98570.00
2019-02-21T15:30:29.755Z,98574.00
2019-02-21T15:32:59.130Z,98582.00
2019-02-21T15:35:28.551Z,98576.00
2019-02-21T15:38:00.438Z,98577.00
2019-02-21T15:40:29.041Z,98584.00
2019-02-21T15:42:58.433Z,98567.00
2019-02-21T15:45:31.484Z,98572.00
2019-02-21T15:48:01.144Z,98569.00
2019-02-21T15:50:30.968Z,98579.00
2019-02-21T15:53:00.348Z,98586.00
2019-02-21T15:55:32.042Z,98585.00
2019-02-21T15:58:04.335Z,98575.00
2019-02-21T16:00:32.042Z,98576.00
2019-02-21T16:03:01.428Z,98585.00
2019-02-21T16:05:30.853Z,98589.00
2019-02-21T16:08:00.294Z,98585.00
2019-02-21T16:10:29.696Z,98605.00
2019-02-21T16:12:59.920Z,98587.00
2019-02-21T16:15:30.659Z,98579.00
2019-02-21T16:18:00.043Z,98603.00
2019-02-21T16:20:29.564Z,98605.00
2019-02-21T16:22:58.981Z,98601.00
2019-02-21T16:25:49.205Z,98613.00
2019-02-21T16:28:18.581Z,98607.00
2019-02-21T16:30:48.040Z,98604.00
2019-02-21T16:33:18.189Z,98606.00
2019-02-21T16:35:47.544Z,98610.00
2019-02-21T16:38:16.925Z,98612.00
2019-02-21T16:40:46.312Z,98610.00
2019-02-21T16:43:15.675Z,98618.00
2019-02-21T16:45:47.172Z,98619.00
2019-02-21T16:48:16.162Z,98628.00
2019-02-21T16:50:48.544Z,98634.00
2019-02-21T16:53:18.095Z,98625.00
2019-02-21T16:55:47.501Z,98632.00
2019-02-21T16:58:16.872Z,98619.00
2019-02-21T17:00:53.299Z,98621.00
2019-02-21T17:03:17.351Z,98623.00
2019-02-21T17:05:46.720Z,98628.00
2019-02-21T17:08:16.092Z,98631.00
2019-02-21T17:10:45.495Z,98638.00
2019-02-21T17:13:14.860Z,98627.00
2019-02-21T17:15:44.239Z,98627.00
2019-02-21T17:18:13.693Z,98635.00
2019-02-21T17:20:43.153Z,98635.00
2019-02-21T17:23:22.298Z,98629.00
2019-02-21T17:25:43.648Z,98636.00
2019-02-21T17:28:14.884Z,98650.00
2019-02-21T17:30:44.256Z,98642.00
2019-02-21T17:33:13.639Z,98649.00
2019-02-21T17:35:43.025Z,98653.00
2019-02-21T17:38:14.392Z,98647.00
2019-02-21T17:40:43.594Z,98666.00
2019-02-21T17:43:12.995Z,98651.00
2019-02-21T17:45:42.378Z,98658.00
2019-02-21T17:48:11.774Z,98659.00
2019-02-21T17:50:41.156Z,98650.00
2019-02-21T17:53:12.069Z,98662.00
2019-02-21T17:55:41.466Z,98652.00
2019-02-21T17:58:10.826Z,98654.00
2019-02-21T18:00:40.712Z,98661.00
2019-02-21T18:03:10.081Z,98663.00
2019-02-21T18:05:39.461Z,98669.00
2019-02-21T18:08:08.843Z,98681.00
2019-02-21T18:10:38.259Z,98671.00
2019-02-21T18:13:07.596Z,98669.00
2019-02-21T18:15:36.977Z,98683.00
2019-02-21T18:18:06.374Z,98663.00
2019-02-21T18:20:35.746Z,98664.00
2019-02-21T18:23:05.193Z,98666.00
2019-02-21T18:25:48.115Z,98666.00
2019-02-21T18:28:17.499Z,98666.00
2019-02-21T18:30:47.004Z,98664.00
2019-02-21T18:33:16.396Z,98677.00
2019-02-21T18:35:45.917Z,98664.00
2019-02-21T18:38:17.275Z,98674.00
2019-02-21T18:40:46.661Z,98667.00
2019-02-21T18:43:16.044Z,98666.00
2019-02-21T18:45:45.424Z,98674.00
2019-02-21T18:48:15.938Z,98666.00
2019-02-21T18:50:45.550Z,98677.00
2019-02-21T18:53:14.921Z,98670.00
2019-02-21T18:55:45.935Z,98668.00
2019-02-21T18:58:15.572Z,98667.00
2019-02-21T19:00:44.965Z,98667.00
2019-02-21T19:03:14.367Z,98673.00
2019-02-21T19:05:43.751Z,98667.00
2019-02-21T19:08:13.134Z,98693.00
2019-02-21T19:10:43.020Z,98691.00
2019-02-21T19:13:12.388Z,98702.00
2019-02-21T19:15:41.766Z,98701.00
2019-02-21T19:18:14.132Z,98695.00
2019-02-21T19:20:43.522Z,98697.00
2019-02-21T19:23:12.896Z,98696.00
2019-02-21T19:25:42.304Z,98699.00
2019-02-21T19:28:11.682Z,98695.00
2019-02-21T19:30:48.996Z,98698.00
2019-02-21T19:33:18.724Z,98702.00
2019-02-21T19:35:48.679Z,98698.00
2019-02-21T19:38:18.140Z,98706.00
2019-02-21T19:40:47.602Z,98705.00
2019-02-21T19:43:16.976Z,98713.00
2019-02-21T19:45:46.351Z,98705.00
2019-02-21T19:48:15.739Z,98714.00
2019-02-21T19:50:45.184Z,98724.00
2019-02-21T19:53:14.664Z,98722.00
2019-02-21T19:55:44.504Z,98724.00
2019-02-21T19:58:14.573Z,98728.00
2019-02-21T20:00:44.085Z,98727.00
2019-02-21T20:03:13.484Z,98732.00
2019-02-21T20:05:43.121Z,98737.00
2019-02-21T20:08:20.991Z,98725.00
2019-02-21T20:10:44.366Z,98741.00
2019-02-21T20:13:14.407Z,98733.00
2019-02-21T20:15:44.112Z,98739.00
2019-02-21T20:18:13.768Z,98746.00
2019-02-21T20:20:43.197Z,98748.00
2019-02-21T20:23:12.577Z,98746.00
2019-02-21T20:25:41.978Z,98751.00
2019-02-21T20:28:11.408Z,98755.00
2019-02-21T20:30:40.859Z,98750.00
2019-02-21T20:33:10.239Z,98762.00
2019-02-21T20:35:39.711Z,98766.00
2019-02-21T20:38:09.069Z,98767.00
2019-02-21T20:40:38.562Z,98764.00
2019-02-21T20:43:07.929Z,98758.00
2019-02-21T20:45:37.390Z,98761.00
2019-02-21T20:48:06.776Z,98760.00
2019-02-21T20:50:36.163Z,98772.00
2019-02-21T20:53:05.603Z,98775.00
2019-02-21T20:55:43.420Z,98769.00
2019-02-21T20:58:06.095Z,98780.00
2019-02-21T21:00:36.696Z,98772.00
2019-02-21T21:03:07.170Z,98781.00
2019-02-21T21:05:36.535Z,98787.00
2019-02-21T21:08:05.942Z,98792.00
2019-02-21T21:10:35.336Z,98797.00
2019-02-21T21:13:04.710Z,98796.00
2019-02-21T21:15:34.090Z,98800.00
2019-02-21T21:18:03.466Z,98807.00
2019-02-21T21:20:32.833Z,98811.00
2019-02-21T21:23:02.201Z,98808.00
2019-02-21T21:25:32.061Z,98819.00
2019-02-21T21:28:01.423Z,98815.00
2019-02-21T21:30:30.810Z,98815.00
2019-02-21T21:33:00.196Z,98818.00
2019-02-21T21:35:29.658Z,98835.00
2019-02-21T21:37:59.024Z,98824.00
2019-02-21T21:40:28.410Z,98824.00
2019-02-21T21:42:57.779Z,98824.00
2019-02-21T21:45:27.151Z,98822.00
2019-02-21T21:47:57.387Z,98826.00
2019-02-21T21:50:26.866Z,98829.00
2019-02-21T21:52:56.247Z,98823.00
2019-02-21T21:55:25.693Z,98832.00
2019-02-21T21:57:55.080Z,98830.00
2019-02-21T22:00:25.017Z,98834.00
2019-02-21T22:02:55.928Z,98826.00
2019-02-21T22:05:25.314Z,98831.00
2019-02-21T22:07:54.695Z,98820.00
2019-02-21T22:10:24.105Z,98824.00
2019-02-21T22:12:53.466Z,98818.00
2019-02-21T22:15:24.950Z,98829.00
2019-02-21T22:17:54.455Z,98821.00
2019-02-21T22:20:23.801Z,98827.00
2019-02-21T22:22:53.165Z,98824.00
2019-02-21T22:25:22.577Z,98822.00
2019-02-21T22:27:51.951Z,98835.00
2019-02-21T22:30:21.905Z,98831.00
2019-02-21T22:32:51.374Z,98831.00
2019-02-21T22:35:20.736Z,98834.00
2019-02-21T22:37:50.107Z,98834.00
2019-02-21T22:40:21.017Z,98826.00
2019-02-21T22:42:50.395Z,98824.00
2019-02-21T22:45:19.862Z,98842.00
2019-02-21T22:47:49.252Z,98834.00
2019-02-21T22:50:19.986Z,98835.00
2019-02-21T22:52:49.349Z,98826.00
2019-02-21T22:55:19.139Z,98844.00
2019-02-21T22:57:48.511Z,98842.00
2019-02-21T23:00:54.340Z,98848.00
2019-02-21T23:03:27.996Z,98836.00
2019-02-21T23:06:26.190Z,98840.00
2019-02-21T23:08:55.826Z,98841.00
2019-02-21T23:11:25.278Z,98845.00
2019-02-21T23:13:55.318Z,98852.00
2019-02-21T23:16:24.752Z,98849.00
2019-02-21T23:18:54.203Z,98850.00
2019-02-21T23:21:25.117Z,98858.00
2019-02-21T23:23:54.492Z,98857.00
2019-02-21T23:26:24.104Z,98857.00
2019-02-21T23:28:53.500Z,98855.00
2019-02-21T23:31:23.525Z,98850.00
2019-02-21T23:33:57.227Z,98838.00
2019-02-21T23:36:27.295Z,98861.00
2019-02-21T23:38:56.665Z,98851.00
2019-02-21T23:41:26.047Z,98849.00
2019-02-21T23:43:55.438Z,98861.00
2019-02-21T23:46:24.827Z,98871.00
2019-02-21T23:48:54.202Z,98856.00
2019-02-21T23:51:23.594Z,98861.00
2019-02-21T23:54:02.813Z,98853.00
2019-02-21T23:56:24.061Z,98867.00
2019-02-21T23:58:54.245Z,98869.00
